sensor_id;sensor_type;location;lat;lon;timestamp;temperature;humidity
12700;DHT22;6414;49.570;6.060;2022-09-30T00:01:13;4.10;99.90
12700;DHT22;6414;49.570;6.060;2022-09-30T00:03:58;4.00;99.90
12700;DHT22;6414;49.570;6.060;2022-09-30T00:06:44;4.00;99.90
12700;DHT22;6414;49.570;6.060;2022-09-30T00:09:29;3.90;99.90
12700;DHT22;6414;49.570;6.060;2022-09-30T00:12:15;3.90;99.90
12700;DHT22;6414;49.570;6.060;2022-09-30T00:15:00;3.90;99.90
12700;DHT22;6414;49.570;6.060;2022-09-30T00:17:46;3.80;99.90
12700;DHT22;6414;49.570;6.060;2022-09-30T00:20:33;3.80;99.90
12700;DHT22;6414;49.570;6.060;2022-09-30T00:23:16;3.70;99.90
12700;DHT22;6414;49.570;6.060;2022-09-30T00:26:03;3.60;99.90
12700;DHT22;6414;49.570;6.060;2022-09-30T00:28:51;3.40;99.90
12700;DHT22;6414;49.570;6.060;2022-09-30T00:31:36;3.50;99.90
12700;DHT22;6414;49.570;6.060;2022-09-30T00:34:22;3.50;99.90
12700;DHT22;6414;49.570;6.060;2022-09-30T00:37:07;3.60;99.90
12700;DHT22;6414;49.570;6.060;2022-09-30T00:39:53;3.70;99.90
12700;DHT22;6414;49.570;6.060;2022-09-30T00:42:39;3.70;99.90
12700;DHT22;6414;49.570;6.060;2022-09-30T00:45:28;3.70;99.90
12700;DHT22;6414;49.570;6.060;2022-09-30T00:48:16;3.80;99.90
12700;DHT22;6414;49.570;6.060;2022-09-30T00:50:59;3.60;99.90
12700;DHT22;6414;49.570;6.060;2022-09-30T00:53:54;3.70;99.90
12700;DHT22;6414;49.570;6.060;2022-09-30T00:56:47;3.50;99.90
12700;DHT22;6414;49.570;6.060;2022-09-30T00:59:35;3.50;99.90
12700;DHT22;6414;49.570;6.060;2022-09-30T01:02:19;3.60;99.90
12700;DHT22;6414;49.570;6.060;2022-09-30T01:05:04;3.70;99.90
12700;DHT22;6414;49.570;6.060;2022-09-30T01:07:49;3.70;99.90
12700;DHT22;6414;49.570;6.060;2022-09-30T01:10:36;3.90;99.90
12700;DHT22;6414;49.570;6.060;2022-09-30T01:13:21;3.90;99.90
12700;DHT22;6414;49.570;6.060;2022-09-30T01:19:17;4.10;99.90
12700;DHT22;6414;49.570;6.060;2022-09-30T01:24:46;4.30;99.90
12700;DHT22;6414;49.570;6.060;2022-09-30T01:27:42;4.30;99.90
12700;DHT22;6414;49.570;6.060;2022-09-30T01:33:42;4.40;99.90
12700;DHT22;6414;49.570;6.060;2022-09-30T01:36:27;4.30;99.90
12700;DHT22;6414;49.570;6.060;2022-09-30T01:42:11;4.40;99.90
12700;DHT22;6414;49.570;6.060;2022-09-30T01:45:12;4.10;99.90
12700;DHT22;6414;49.570;6.060;2022-09-30T01:48:05;4.10;99.90
12700;DHT22;6414;49.570;6.060;2022-09-30T01:50:55;4.30;99.90
12700;DHT22;6414;49.570;6.060;2022-09-30T01:53:43;4.20;99.90
12700;DHT22;6414;49.570;6.060;2022-09-30T01:56:38;4.00;99.90
12700;DHT22;6414;49.570;6.060;2022-09-30T01:59:38;3.90;99.90
12700;DHT22;6414;49.570;6.060;2022-09-30T02:02:17;3.80;99.90
12700;DHT22;6414;49.570;6.060;2022-09-30T02:05:02;3.80;99.90
12700;DHT22;6414;49.570;6.060;2022-09-30T02:08:34;3.70;99.90
12700;DHT22;6414;49.570;6.060;2022-09-30T02:10:45;3.50;99.90
12700;DHT22;6414;49.570;6.060;2022-09-30T02:14:16;3.50;99.90
12700;DHT22;6414;49.570;6.060;2022-09-30T02:16:15;3.40;99.90
12700;DHT22;6414;49.570;6.060;2022-09-30T02:19:09;3.40;99.90
12700;DHT22;6414;49.570;6.060;2022-09-30T02:21:59;3.40;99.90
12700;DHT22;6414;49.570;6.060;2022-09-30T02:24:43;3.40;99.90
12700;DHT22;6414;49.570;6.060;2022-09-30T02:27:30;3.20;99.90
12700;DHT22;6414;49.570;6.060;2022-09-30T02:30:14;3.20;99.90
12700;DHT22;6414;49.570;6.060;2022-09-30T02:33:05;2.70;99.90
12700;DHT22;6414;49.570;6.060;2022-09-30T02:35:47;2.70;99.90
12700;DHT22;6414;49.570;6.060;2022-09-30T02:38:33;2.50;99.90
12700;DHT22;6414;49.570;6.060;2022-09-30T02:41:18;2.30;99.90
12700;DHT22;6414;49.570;6.060;2022-09-30T02:44:03;2.40;99.90
12700;DHT22;6414;49.570;6.060;2022-09-30T02:46:52;2.40;99.90
12700;DHT22;6414;49.570;6.060;2022-09-30T02:49:47;2.40;99.90
12700;DHT22;6414;49.570;6.060;2022-09-30T02:52:47;2.60;99.90
12700;DHT22;6414;49.570;6.060;2022-09-30T02:55:46;3.00;99.90
12700;DHT22;6414;49.570;6.060;2022-09-30T02:58:26;3.20;99.90
12700;DHT22;6414;49.570;6.060;2022-09-30T03:01:13;3.60;99.90
12700;DHT22;6414;49.570;6.060;2022-09-30T03:04:07;3.60;99.90
12700;DHT22;6414;49.570;6.060;2022-09-30T03:06:43;3.60;99.90
12700;DHT22;6414;49.570;6.060;2022-09-30T03:09:28;3.60;99.90
12700;DHT22;6414;49.570;6.060;2022-09-30T03:12:35;3.70;99.90
12700;DHT22;6414;49.570;6.060;2022-09-30T03:15:25;3.50;99.90
12700;DHT22;6414;49.570;6.060;2022-09-30T03:21:00;3.20;99.90
12700;DHT22;6414;49.570;6.060;2022-09-30T03:26:37;2.90;99.90
12700;DHT22;6414;49.570;6.060;2022-09-30T03:29:40;2.40;99.90
12700;DHT22;6414;49.570;6.060;2022-09-30T03:35:26;2.50;99.90
12700;DHT22;6414;49.570;6.060;2022-09-30T03:38:11;2.40;99.90
12700;DHT22;6414;49.570;6.060;2022-09-30T03:41:21;2.20;99.90
12700;DHT22;6414;49.570;6.060;2022-09-30T03:44:11;2.20;99.90
12700;DHT22;6414;49.570;6.060;2022-09-30T03:46:56;2.10;99.90
12700;DHT22;6414;49.570;6.060;2022-09-30T03:49:48;2.20;99.90
12700;DHT22;6414;49.570;6.060;2022-09-30T03:52:31;2.30;99.90
12700;DHT22;6414;49.570;6.060;2022-09-30T03:55:16;2.50;99.90
12700;DHT22;6414;49.570;6.060;2022-09-30T03:58:02;2.50;99.90
12700;DHT22;6414;49.570;6.060;2022-09-30T04:00:49;2.70;99.90
12700;DHT22;6414;49.570;6.060;2022-09-30T04:03:32;2.80;99.90
12700;DHT22;6414;49.570;6.060;2022-09-30T04:06:22;2.50;99.90
12700;DHT22;6414;49.570;6.060;2022-09-30T04:09:06;2.20;99.90
12700;DHT22;6414;49.570;6.060;2022-09-30T04:11:51;1.90;99.90
12700;DHT22;6414;49.570;6.060;2022-09-30T04:14:37;1.80;99.90
12700;DHT22;6414;49.570;6.060;2022-09-30T04:17:22;1.90;99.90
12700;DHT22;6414;49.570;6.060;2022-09-30T04:20:08;2.00;99.90
12700;DHT22;6414;49.570;6.060;2022-09-30T04:22:56;2.10;99.90
12700;DHT22;6414;49.570;6.060;2022-09-30T04:25:40;1.90;99.90
12700;DHT22;6414;49.570;6.060;2022-09-30T04:28:25;2.00;99.90
12700;DHT22;6414;49.570;6.060;2022-09-30T04:31:11;1.80;99.90
12700;DHT22;6414;49.570;6.060;2022-09-30T04:33:56;1.80;99.90
12700;DHT22;6414;49.570;6.060;2022-09-30T04:36:42;1.90;99.90
12700;DHT22;6414;49.570;6.060;2022-09-30T04:39:27;2.00;99.90
12700;DHT22;6414;49.570;6.060;2022-09-30T04:42:13;2.00;99.90
12700;DHT22;6414;49.570;6.060;2022-09-30T04:44:58;2.00;99.90
12700;DHT22;6414;49.570;6.060;2022-09-30T04:47:44;2.00;99.90
12700;DHT22;6414;49.570;6.060;2022-09-30T04:50:29;2.00;99.90
12700;DHT22;6414;49.570;6.060;2022-09-30T04:53:15;2.00;99.90
12700;DHT22;6414;49.570;6.060;2022-09-30T04:56:01;1.90;99.90
12700;DHT22;6414;49.570;6.060;2022-09-30T04:58:47;1.90;99.90
12700;DHT22;6414;49.570;6.060;2022-09-30T05:01:33;2.00;99.90
12700;DHT22;6414;49.570;6.060;2022-09-30T05:04:19;2.00;99.90
12700;DHT22;6414;49.570;6.060;2022-09-30T05:07:04;2.00;99.90
12700;DHT22;6414;49.570;6.060;2022-09-30T05:09:50;1.90;99.90
12700;DHT22;6414;49.570;6.060;2022-09-30T05:12:36;1.90;99.90
12700;DHT22;6414;49.570;6.060;2022-09-30T05:15:21;1.90;99.90
12700;DHT22;6414;49.570;6.060;2022-09-30T05:18:07;1.90;99.90
12700;DHT22;6414;49.570;6.060;2022-09-30T05:20:53;1.70;99.90
12700;DHT22;6414;49.570;6.060;2022-09-30T05:23:38;1.80;99.90
12700;DHT22;6414;49.570;6.060;2022-09-30T05:26:23;1.80;99.90
12700;DHT22;6414;49.570;6.060;2022-09-30T05:29:09;1.70;99.90
12700;DHT22;6414;49.570;6.060;2022-09-30T05:31:53;1.90;99.90
12700;DHT22;6414;49.570;6.060;2022-09-30T05:34:39;2.00;99.90
12700;DHT22;6414;49.570;6.060;2022-09-30T05:37:24;1.90;99.90
12700;DHT22;6414;49.570;6.060;2022-09-30T05:40:09;1.80;99.90
12700;DHT22;6414;49.570;6.060;2022-09-30T05:42:58;1.50;99.90
12700;DHT22;6414;49.570;6.060;2022-09-30T05:45:50;1.40;99.90
12700;DHT22;6414;49.570;6.060;2022-09-30T05:48:29;1.60;99.90
12700;DHT22;6414;49.570;6.060;2022-09-30T05:51:14;1.90;99.90
12700;DHT22;6414;49.570;6.060;2022-09-30T05:54:00;2.00;99.90
12700;DHT22;6414;49.570;6.060;2022-09-30T05:56:46;1.80;99.90
12700;DHT22;6414;49.570;6.060;2022-09-30T05:59:31;1.90;99.90
12700;DHT22;6414;49.570;6.060;2022-09-30T06:02:18;1.90;99.90
12700;DHT22;6414;49.570;6.060;2022-09-30T06:05:07;1.90;99.90
12700;DHT22;6414;49.570;6.060;2022-09-30T06:07:52;2.00;99.90
12700;DHT22;6414;49.570;6.060;2022-09-30T06:10:41;2.00;99.90
12700;DHT22;6414;49.570;6.060;2022-09-30T06:13:26;2.10;99.90
12700;DHT22;6414;49.570;6.060;2022-09-30T06:16:11;2.20;99.90
12700;DHT22;6414;49.570;6.060;2022-09-30T06:18:56;2.20;99.90
12700;DHT22;6414;49.570;6.060;2022-09-30T06:21:42;2.20;99.90
12700;DHT22;6414;49.570;6.060;2022-09-30T06:24:28;2.10;99.90
12700;DHT22;6414;49.570;6.060;2022-09-30T06:27:13;2.10;99.90
12700;DHT22;6414;49.570;6.060;2022-09-30T06:30:00;2.20;99.90
12700;DHT22;6414;49.570;6.060;2022-09-30T06:32:45;2.20;99.90
12700;DHT22;6414;49.570;6.060;2022-09-30T06:35:31;2.10;99.90
12700;DHT22;6414;49.570;6.060;2022-09-30T06:38:16;2.20;99.90
12700;DHT22;6414;49.570;6.060;2022-09-30T06:41:01;2.40;99.90
12700;DHT22;6414;49.570;6.060;2022-09-30T06:43:46;2.60;99.90
12700;DHT22;6414;49.570;6.060;2022-09-30T06:46:32;2.80;99.90
12700;DHT22;6414;49.570;6.060;2022-09-30T06:49:17;2.70;99.90
12700;DHT22;6414;49.570;6.060;2022-09-30T06:52:03;2.70;99.90
12700;DHT22;6414;49.570;6.060;2022-09-30T06:54:48;2.80;99.90
12700;DHT22;6414;49.570;6.060;2022-09-30T06:57:33;2.90;99.90
12700;DHT22;6414;49.570;6.060;2022-09-30T07:00:19;3.00;99.90
12700;DHT22;6414;49.570;6.060;2022-09-30T07:03:04;3.00;99.90
12700;DHT22;6414;49.570;6.060;2022-09-30T07:05:53;3.20;99.90
12700;DHT22;6414;49.570;6.060;2022-09-30T07:08:38;3.30;99.90
12700;DHT22;6414;49.570;6.060;2022-09-30T07:11:23;3.40;99.90
12700;DHT22;6414;49.570;6.060;2022-09-30T07:14:09;3.40;99.90
12700;DHT22;6414;49.570;6.060;2022-09-30T07:16:55;3.50;99.90
12700;DHT22;6414;49.570;6.060;2022-09-30T07:19:40;3.50;99.90
12700;DHT22;6414;49.570;6.060;2022-09-30T07:22:26;3.60;99.90
12700;DHT22;6414;49.570;6.060;2022-09-30T07:25:12;3.60;99.90
12700;DHT22;6414;49.570;6.060;2022-09-30T07:27:58;3.80;99.90
12700;DHT22;6414;49.570;6.060;2022-09-30T07:30:44;3.80;99.90
12700;DHT22;6414;49.570;6.060;2022-09-30T07:33:29;3.80;99.90
12700;DHT22;6414;49.570;6.060;2022-09-30T07:36:14;3.90;99.90
12700;DHT22;6414;49.570;6.060;2022-09-30T07:39:04;4.00;99.90
12700;DHT22;6414;49.570;6.060;2022-09-30T07:41:45;4.10;99.90
12700;DHT22;6414;49.570;6.060;2022-09-30T07:44:31;4.30;99.90
12700;DHT22;6414;49.570;6.060;2022-09-30T07:47:16;4.50;99.90
12700;DHT22;6414;49.570;6.060;2022-09-30T07:50:01;4.70;99.90
12700;DHT22;6414;49.570;6.060;2022-09-30T07:52:47;4.80;99.90
12700;DHT22;6414;49.570;6.060;2022-09-30T07:55:34;5.00;99.90
12700;DHT22;6414;49.570;6.060;2022-09-30T07:58:19;5.00;99.90
12700;DHT22;6414;49.570;6.060;2022-09-30T08:01:04;5.10;99.90
12700;DHT22;6414;49.570;6.060;2022-09-30T08:03:53;5.20;99.90
12700;DHT22;6414;49.570;6.060;2022-09-30T08:06:36;5.30;99.90
12700;DHT22;6414;49.570;6.060;2022-09-30T08:09:21;5.50;99.90
12700;DHT22;6414;49.570;6.060;2022-09-30T08:12:05;5.70;99.90
12700;DHT22;6414;49.570;6.060;2022-09-30T08:14:51;5.80;99.90
12700;DHT22;6414;49.570;6.060;2022-09-30T08:17:36;6.00;99.90
12700;DHT22;6414;49.570;6.060;2022-09-30T08:20:22;6.10;99.90
12700;DHT22;6414;49.570;6.060;2022-09-30T08:23:07;6.30;99.90
12700;DHT22;6414;49.570;6.060;2022-09-30T08:25:59;6.50;99.90
12700;DHT22;6414;49.570;6.060;2022-09-30T08:28:39;6.70;99.90
12700;DHT22;6414;49.570;6.060;2022-09-30T08:31:25;6.80;99.90
12700;DHT22;6414;49.570;6.060;2022-09-30T08:34:10;7.00;99.90
12700;DHT22;6414;49.570;6.060;2022-09-30T08:36:56;7.20;99.90
12700;DHT22;6414;49.570;6.060;2022-09-30T08:39:41;7.30;99.90
12700;DHT22;6414;49.570;6.060;2022-09-30T08:42:46;7.50;99.90
12700;DHT22;6414;49.570;6.060;2022-09-30T08:45:46;7.40;99.90
12700;DHT22;6414;49.570;6.060;2022-09-30T08:48:39;7.60;99.90
12700;DHT22;6414;49.570;6.060;2022-09-30T08:51:42;7.70;99.90
12700;DHT22;6414;49.570;6.060;2022-09-30T08:54:20;7.70;99.90
12700;DHT22;6414;49.570;6.060;2022-09-30T08:57:04;7.90;99.90
12700;DHT22;6414;49.570;6.060;2022-09-30T08:59:54;8.40;99.90
12700;DHT22;6414;49.570;6.060;2022-09-30T09:02:51;8.40;99.90
12700;DHT22;6414;49.570;6.060;2022-09-30T09:05:58;8.40;99.90
12700;DHT22;6414;49.570;6.060;2022-09-30T09:15:17;8.90;99.90
12700;DHT22;6414;49.570;6.060;2022-09-30T09:21:37;9.50;99.90
12700;DHT22;6414;49.570;6.060;2022-09-30T09:24:23;9.70;99.90
12700;DHT22;6414;49.570;6.060;2022-09-30T09:27:20;10.40;99.90
12700;DHT22;6414;49.570;6.060;2022-09-30T09:30:10;11.60;99.90
12700;DHT22;6414;49.570;6.060;2022-09-30T09:32:56;12.30;99.90
12700;DHT22;6414;49.570;6.060;2022-09-30T09:41:42;13.00;99.90
12700;DHT22;6414;49.570;6.060;2022-09-30T09:44:42;13.00;99.90
12700;DHT22;6414;49.570;6.060;2022-09-30T09:47:25;13.20;99.90
12700;DHT22;6414;49.570;6.060;2022-09-30T09:50:43;12.40;99.90
12700;DHT22;6414;49.570;6.060;2022-09-30T09:53:51;12.40;99.90
12700;DHT22;6414;49.570;6.060;2022-09-30T09:56:20;12.80;99.90
12700;DHT22;6414;49.570;6.060;2022-09-30T09:59:06;12.60;99.90
12700;DHT22;6414;49.570;6.060;2022-09-30T10:01:52;12.50;99.90
12700;DHT22;6414;49.570;6.060;2022-09-30T10:04:38;12.70;99.90
12700;DHT22;6414;49.570;6.060;2022-09-30T10:07:23;12.70;99.90
12700;DHT22;6414;49.570;6.060;2022-09-30T10:12:54;12.50;99.90
12700;DHT22;6414;49.570;6.060;2022-09-30T10:15:40;12.50;99.90
12700;DHT22;6414;49.570;6.060;2022-09-30T10:18:32;12.90;99.90
12700;DHT22;6414;49.570;6.060;2022-09-30T10:21:23;12.70;99.90
12700;DHT22;6414;49.570;6.060;2022-09-30T10:24:18;12.70;99.90
12700;DHT22;6414;49.570;6.060;2022-09-30T10:27:02;12.60;99.90
12700;DHT22;6414;49.570;6.060;2022-09-30T10:29:47;12.50;99.90
12700;DHT22;6414;49.570;6.060;2022-09-30T10:32:33;12.60;99.90
12700;DHT22;6414;49.570;6.060;2022-09-30T10:35:19;12.60;99.90
12700;DHT22;6414;49.570;6.060;2022-09-30T10:38:03;12.80;99.90
12700;DHT22;6414;49.570;6.060;2022-09-30T10:40:49;12.40;99.90
12700;DHT22;6414;49.570;6.060;2022-09-30T10:43:41;12.30;99.90
12700;DHT22;6414;49.570;6.060;2022-09-30T10:46:35;12.20;99.90
12700;DHT22;6414;49.570;6.060;2022-09-30T10:49:24;12.20;99.90
12700;DHT22;6414;49.570;6.060;2022-09-30T10:52:14;12.40;99.90
12700;DHT22;6414;49.570;6.060;2022-09-30T10:54:53;13.00;99.90
12700;DHT22;6414;49.570;6.060;2022-09-30T10:57:40;12.60;99.90
12700;DHT22;6414;49.570;6.060;2022-09-30T11:00:25;12.60;99.90
12700;DHT22;6414;49.570;6.060;2022-09-30T11:03:13;12.50;99.90
12700;DHT22;6414;49.570;6.060;2022-09-30T11:05:56;12.60;99.90
12700;DHT22;6414;49.570;6.060;2022-09-30T11:08:48;12.50;99.90
12700;DHT22;6414;49.570;6.060;2022-09-30T11:11:35;12.50;99.90
12700;DHT22;6414;49.570;6.060;2022-09-30T11:14:28;12.30;99.90
12700;DHT22;6414;49.570;6.060;2022-09-30T11:20:49;12.40;99.90
12700;DHT22;6414;49.570;6.060;2022-09-30T11:23:28;12.50;99.90
12700;DHT22;6414;49.570;6.060;2022-09-30T11:26:20;12.70;99.90
12700;DHT22;6414;49.570;6.060;2022-09-30T11:38:55;12.60;99.90
12700;DHT22;6414;49.570;6.060;2022-09-30T11:41:28;12.90;99.90
12700;DHT22;6414;49.570;6.060;2022-09-30T11:44:35;12.90;99.90
12700;DHT22;6414;49.570;6.060;2022-09-30T11:47:22;12.70;99.90
12700;DHT22;6414;49.570;6.060;2022-09-30T11:50:22;12.90;99.90
12700;DHT22;6414;49.570;6.060;2022-09-30T11:59:23;13.20;99.90
12700;DHT22;6414;49.570;6.060;2022-09-30T12:02:29;13.60;99.90
12700;DHT22;6414;49.570;6.060;2022-09-30T12:05:27;13.60;99.90
12700;DHT22;6414;49.570;6.060;2022-09-30T12:08:13;13.40;99.90
12700;DHT22;6414;49.570;6.060;2022-09-30T12:13:42;13.50;99.90
12700;DHT22;6414;49.570;6.060;2022-09-30T12:16:27;13.90;99.90
12700;DHT22;6414;49.570;6.060;2022-09-30T12:19:46;13.90;99.90
12700;DHT22;6414;49.570;6.060;2022-09-30T12:25:14;13.90;99.90
12700;DHT22;6414;49.570;6.060;2022-09-30T12:28:06;13.90;99.90
12700;DHT22;6414;49.570;6.060;2022-09-30T12:30:53;14.20;99.90
12700;DHT22;6414;49.570;6.060;2022-09-30T12:34:02;14.20;99.90
12700;DHT22;6414;49.570;6.060;2022-09-30T12:37:08;14.20;99.90
12700;DHT22;6414;49.570;6.060;2022-09-30T12:48:58;12.90;99.90
12700;DHT22;6414;49.570;6.060;2022-09-30T12:51:40;13.00;99.90
12700;DHT22;6414;49.570;6.060;2022-09-30T12:57:04;13.30;99.90
12700;DHT22;6414;49.570;6.060;2022-09-30T12:59:53;13.40;99.90
12700;DHT22;6414;49.570;6.060;2022-09-30T13:02:38;13.80;99.90
12700;DHT22;6414;49.570;6.060;2022-09-30T13:11:03;14.00;99.90
12700;DHT22;6414;49.570;6.060;2022-09-30T13:14:44;14.20;99.90
12700;DHT22;6414;49.570;6.060;2022-09-30T13:19:53;14.30;99.90
12700;DHT22;6414;49.570;6.060;2022-09-30T13:25:24;14.20;99.90
12700;DHT22;6414;49.570;6.060;2022-09-30T13:31:11;14.10;99.90
12700;DHT22;6414;49.570;6.060;2022-09-30T13:39:46;14.20;99.90
12700;DHT22;6414;49.570;6.060;2022-09-30T13:42:31;14.40;99.90
12700;DHT22;6414;49.570;6.060;2022-09-30T13:45:20;14.40;99.90
12700;DHT22;6414;49.570;6.060;2022-09-30T13:48:10;14.50;99.90
12700;DHT22;6414;49.570;6.060;2022-09-30T13:50:57;14.20;99.90
12700;DHT22;6414;49.570;6.060;2022-09-30T13:53:50;14.10;99.90
12700;DHT22;6414;49.570;6.060;2022-09-30T13:56:31;14.00;99.90
12700;DHT22;6414;49.570;6.060;2022-09-30T14:02:29;14.30;99.90
12700;DHT22;6414;49.570;6.060;2022-09-30T14:05:21;14.30;99.90
12700;DHT22;6414;49.570;6.060;2022-09-30T14:08:22;14.40;99.90
12700;DHT22;6414;49.570;6.060;2022-09-30T14:11:26;14.40;99.90
12700;DHT22;6414;49.570;6.060;2022-09-30T14:17:32;14.20;99.90
12700;DHT22;6414;49.570;6.060;2022-09-30T14:20:33;14.00;99.90
12700;DHT22;6414;49.570;6.060;2022-09-30T14:23:15;14.00;99.90
12700;DHT22;6414;49.570;6.060;2022-09-30T14:29:15;14.30;99.90
12700;DHT22;6414;49.570;6.060;2022-09-30T14:31:58;14.30;99.90
12700;DHT22;6414;49.570;6.060;2022-09-30T14:34:44;14.30;99.90
12700;DHT22;6414;49.570;6.060;2022-09-30T14:37:30;14.10;99.90
12700;DHT22;6414;49.570;6.060;2022-09-30T14:40:16;14.10;99.90
12700;DHT22;6414;49.570;6.060;2022-09-30T14:43:04;14.30;99.90
12700;DHT22;6414;49.570;6.060;2022-09-30T14:45:51;14.20;99.90
12700;DHT22;6414;49.570;6.060;2022-09-30T14:48:36;14.10;99.90
12700;DHT22;6414;49.570;6.060;2022-09-30T14:51:21;14.20;99.90
12700;DHT22;6414;49.570;6.060;2022-09-30T14:54:14;14.20;99.90
12700;DHT22;6414;49.570;6.060;2022-09-30T14:56:56;14.20;99.90
12700;DHT22;6414;49.570;6.060;2022-09-30T14:59:40;14.10;99.90
12700;DHT22;6414;49.570;6.060;2022-09-30T15:02:26;14.20;99.90
12700;DHT22;6414;49.570;6.060;2022-09-30T15:05:12;14.40;99.90
12700;DHT22;6414;49.570;6.060;2022-09-30T15:07:57;14.30;99.90
12700;DHT22;6414;49.570;6.060;2022-09-30T15:10:55;14.20;99.90
12700;DHT22;6414;49.570;6.060;2022-09-30T15:13:31;14.00;99.90
12700;DHT22;6414;49.570;6.060;2022-09-30T15:16:27;14.00;99.90
12700;DHT22;6414;49.570;6.060;2022-09-30T15:19:33;14.00;99.90
12700;DHT22;6414;49.570;6.060;2022-09-30T15:22:17;13.90;99.90
12700;DHT22;6414;49.570;6.060;2022-09-30T15:25:03;13.90;99.90
12700;DHT22;6414;49.570;6.060;2022-09-30T15:27:48;13.90;99.90
12700;DHT22;6414;49.570;6.060;2022-09-30T15:30:33;13.90;99.90
12700;DHT22;6414;49.570;6.060;2022-09-30T15:33:20;13.90;99.90
12700;DHT22;6414;49.570;6.060;2022-09-30T15:36:06;14.00;99.90
12700;DHT22;6414;49.570;6.060;2022-09-30T15:38:50;14.10;99.90
12700;DHT22;6414;49.570;6.060;2022-09-30T15:41:38;14.10;99.90
12700;DHT22;6414;49.570;6.060;2022-09-30T15:44:36;14.00;99.90
12700;DHT22;6414;49.570;6.060;2022-09-30T15:47:20;13.90;99.90
12700;DHT22;6414;49.570;6.060;2022-09-30T15:50:13;13.80;99.90
12700;DHT22;6414;49.570;6.060;2022-09-30T15:52:52;13.80;99.90
12700;DHT22;6414;49.570;6.060;2022-09-30T15:55:38;13.80;99.90
12700;DHT22;6414;49.570;6.060;2022-09-30T15:58:36;13.80;99.90
12700;DHT22;6414;49.570;6.060;2022-09-30T16:01:34;13.70;99.90
12700;DHT22;6414;49.570;6.060;2022-09-30T16:07:05;13.60;99.90
12700;DHT22;6414;49.570;6.060;2022-09-30T16:09:50;13.70;99.90
12700;DHT22;6414;49.570;6.060;2022-09-30T16:12:36;13.60;99.90
12700;DHT22;6414;49.570;6.060;2022-09-30T16:15:22;13.60;99.90
12700;DHT22;6414;49.570;6.060;2022-09-30T16:18:22;13.50;99.90
12700;DHT22;6414;49.570;6.060;2022-09-30T16:21:05;13.50;99.90
12700;DHT22;6414;49.570;6.060;2022-09-30T16:23:50;13.50;99.90
12700;DHT22;6414;49.570;6.060;2022-09-30T16:26:35;13.50;99.90
12700;DHT22;6414;49.570;6.060;2022-09-30T16:29:21;13.50;99.90
12700;DHT22;6414;49.570;6.060;2022-09-30T16:32:07;13.40;99.90
12700;DHT22;6414;49.570;6.060;2022-09-30T16:34:51;13.40;99.90
12700;DHT22;6414;49.570;6.060;2022-09-30T16:37:37;13.30;99.90
12700;DHT22;6414;49.570;6.060;2022-09-30T16:40:23;13.20;99.90
12700;DHT22;6414;49.570;6.060;2022-09-30T16:43:08;13.20;99.90
12700;DHT22;6414;49.570;6.060;2022-09-30T16:45:53;13.10;99.90
12700;DHT22;6414;49.570;6.060;2022-09-30T16:48:38;13.10;99.90
12700;DHT22;6414;49.570;6.060;2022-09-30T16:51:24;13.00;99.90
12700;DHT22;6414;49.570;6.060;2022-09-30T16:54:10;12.90;99.90
12700;DHT22;6414;49.570;6.060;2022-09-30T16:56:55;12.90;99.90
12700;DHT22;6414;49.570;6.060;2022-09-30T16:59:40;12.80;99.90
12700;DHT22;6414;49.570;6.060;2022-09-30T17:02:25;12.70;99.90
12700;DHT22;6414;49.570;6.060;2022-09-30T17:05:12;12.50;99.90
12700;DHT22;6414;49.570;6.060;2022-09-30T17:07:58;12.50;99.90
12700;DHT22;6414;49.570;6.060;2022-09-30T17:10:43;12.40;99.90
12700;DHT22;6414;49.570;6.060;2022-09-30T17:13:28;12.30;99.90
12700;DHT22;6414;49.570;6.060;2022-09-30T17:16:13;12.20;99.90
12700;DHT22;6414;49.570;6.060;2022-09-30T17:18:59;12.10;99.90
12700;DHT22;6414;49.570;6.060;2022-09-30T17:21:45;11.90;99.90
12700;DHT22;6414;49.570;6.060;2022-09-30T17:24:31;11.80;99.90
12700;DHT22;6414;49.570;6.060;2022-09-30T17:27:16;11.70;99.90
12700;DHT22;6414;49.570;6.060;2022-09-30T17:30:03;11.70;99.90
12700;DHT22;6414;49.570;6.060;2022-09-30T17:32:48;11.70;99.90
12700;DHT22;6414;49.570;6.060;2022-09-30T17:35:33;11.70;99.90
12700;DHT22;6414;49.570;6.060;2022-09-30T17:38:18;11.70;99.90
12700;DHT22;6414;49.570;6.060;2022-09-30T17:41:04;11.70;99.90
12700;DHT22;6414;49.570;6.060;2022-09-30T17:44:08;11.60;99.90
12700;DHT22;6414;49.570;6.060;2022-09-30T17:46:53;11.50;99.90
12700;DHT22;6414;49.570;6.060;2022-09-30T17:49:39;11.50;99.90
12700;DHT22;6414;49.570;6.060;2022-09-30T17:52:24;11.40;99.90
12700;DHT22;6414;49.570;6.060;2022-09-30T17:55:09;11.20;99.90
12700;DHT22;6414;49.570;6.060;2022-09-30T17:57:55;11.10;99.90
12700;DHT22;6414;49.570;6.060;2022-09-30T18:00:41;11.00;99.90
12700;DHT22;6414;49.570;6.060;2022-09-30T18:03:26;11.00;99.90
12700;DHT22;6414;49.570;6.060;2022-09-30T18:06:12;11.00;99.90
12700;DHT22;6414;49.570;6.060;2022-09-30T18:08:57;11.00;99.90
12700;DHT22;6414;49.570;6.060;2022-09-30T18:11:42;11.00;99.90
12700;DHT22;6414;49.570;6.060;2022-09-30T18:14:28;10.90;99.90
12700;DHT22;6414;49.570;6.060;2022-09-30T18:17:13;10.90;99.90
12700;DHT22;6414;49.570;6.060;2022-09-30T18:19:58;10.90;99.90
12700;DHT22;6414;49.570;6.060;2022-09-30T18:22:44;11.00;99.90
12700;DHT22;6414;49.570;6.060;2022-09-30T18:25:30;11.00;99.90
12700;DHT22;6414;49.570;6.060;2022-09-30T18:28:15;11.10;99.90
12700;DHT22;6414;49.570;6.060;2022-09-30T18:31:05;11.10;99.90
12700;DHT22;6414;49.570;6.060;2022-09-30T18:33:49;11.00;99.90
12700;DHT22;6414;49.570;6.060;2022-09-30T18:36:35;11.00;99.90
12700;DHT22;6414;49.570;6.060;2022-09-30T18:39:20;10.90;99.90
12700;DHT22;6414;49.570;6.060;2022-09-30T18:42:06;11.00;99.90
12700;DHT22;6414;49.570;6.060;2022-09-30T18:44:51;10.90;99.90
12700;DHT22;6414;49.570;6.060;2022-09-30T18:47:37;10.90;99.90
12700;DHT22;6414;49.570;6.060;2022-09-30T18:50:22;10.90;99.90
12700;DHT22;6414;49.570;6.060;2022-09-30T18:53:09;10.90;99.90
12700;DHT22;6414;49.570;6.060;2022-09-30T18:55:52;10.90;99.90
12700;DHT22;6414;49.570;6.060;2022-09-30T18:58:38;10.90;99.90
12700;DHT22;6414;49.570;6.060;2022-09-30T19:01:23;10.80;99.90
12700;DHT22;6414;49.570;6.060;2022-09-30T19:04:09;10.80;99.90
12700;DHT22;6414;49.570;6.060;2022-09-30T19:06:54;10.80;99.90
12700;DHT22;6414;49.570;6.060;2022-09-30T19:09:39;10.80;99.90
12700;DHT22;6414;49.570;6.060;2022-09-30T19:12:25;10.70;99.90
12700;DHT22;6414;49.570;6.060;2022-09-30T19:15:12;10.70;99.90
12700;DHT22;6414;49.570;6.060;2022-09-30T19:17:56;10.60;99.90
12700;DHT22;6414;49.570;6.060;2022-09-30T19:20:42;10.60;99.90
12700;DHT22;6414;49.570;6.060;2022-09-30T19:23:29;10.50;99.90
12700;DHT22;6414;49.570;6.060;2022-09-30T19:26:13;10.50;99.90
12700;DHT22;6414;49.570;6.060;2022-09-30T19:28:58;10.40;99.90
12700;DHT22;6414;49.570;6.060;2022-09-30T19:31:43;10.30;99.90
12700;DHT22;6414;49.570;6.060;2022-09-30T19:34:29;10.30;99.90
12700;DHT22;6414;49.570;6.060;2022-09-30T19:37:14;10.30;99.90
12700;DHT22;6414;49.570;6.060;2022-09-30T19:39:59;10.30;99.90
12700;DHT22;6414;49.570;6.060;2022-09-30T19:42:46;10.20;99.90
12700;DHT22;6414;49.570;6.060;2022-09-30T19:45:31;10.00;99.90
12700;DHT22;6414;49.570;6.060;2022-09-30T19:48:16;10.00;99.90
12700;DHT22;6414;49.570;6.060;2022-09-30T19:51:05;9.90;99.90
12700;DHT22;6414;49.570;6.060;2022-09-30T19:53:49;9.90;99.90